sensor_id;sensor_type;location;lat;lon;timestamp;temperature;humidity
9305;DHT22;4690;52.422;13.486;2022-12-07T00:06:25;3.30;99.90
9305;DHT22;4690;52.422;13.486;2022-12-07T00:08:50;3.30;99.90
9305;DHT22;4690;52.422;13.486;2022-12-07T00:11:21;3.30;99.90
9305;DHT22;4690;52.422;13.486;2022-12-07T00:13:53;3.20;99.90
9305;DHT22;4690;52.422;13.486;2022-12-07T00:16:23;3.20;99.90
9305;DHT22;4690;52.422;13.486;2022-12-07T00:18:50;3.10;99.90
9305;DHT22;4690;52.422;13.486;2022-12-07T00:21:19;3.10;99.90
9305;DHT22;4690;52.422;13.486;2022-12-07T00:24:06;3.00;99.90
9305;DHT22;4690;52.422;13.486;2022-12-07T00:26:34;3.00;99.90
9305;DHT22;4690;52.422;13.486;2022-12-07T00:29:12;3.00;99.90
9305;DHT22;4690;52.422;13.486;2022-12-07T00:31:43;3.00;99.90
9305;DHT22;4690;52.422;13.486;2022-12-07T00:34:15;2.90;99.90
9305;DHT22;4690;52.422;13.486;2022-12-07T00:36:43;2.90;99.90
9305;DHT22;4690;52.422;13.486;2022-12-07T00:39:09;2.90;99.90
9305;DHT22;4690;52.422;13.486;2022-12-07T00:41:35;2.90;99.90
9305;DHT22;4690;52.422;13.486;2022-12-07T00:44:01;2.80;99.90
9305;DHT22;4690;52.422;13.486;2022-12-07T00:46:26;2.90;99.90
9305;DHT22;4690;52.422;13.486;2022-12-07T00:48:53;2.80;99.90
9305;DHT22;4690;52.422;13.486;2022-12-07T00:51:22;2.80;99.90
9305;DHT22;4690;52.422;13.486;2022-12-07T00:53:50;2.70;99.90
9305;DHT22;4690;52.422;13.486;2022-12-07T00:58:54;2.60;99.90
9305;DHT22;4690;52.422;13.486;2022-12-07T01:01:25;2.50;99.90
9305;DHT22;4690;52.422;13.486;2022-12-07T01:03:52;2.50;99.90
9305;DHT22;4690;52.422;13.486;2022-12-07T01:06:19;2.50;99.90
9305;DHT22;4690;52.422;13.486;2022-12-07T01:08:47;2.40;99.90
9305;DHT22;4690;52.422;13.486;2022-12-07T01:11:16;2.40;99.90
9305;DHT22;4690;52.422;13.486;2022-12-07T01:13:43;2.40;99.90
9305;DHT22;4690;52.422;13.486;2022-12-07T01:16:12;2.40;99.90
9305;DHT22;4690;52.422;13.486;2022-12-07T01:18:40;2.30;99.90
9305;DHT22;4690;52.422;13.486;2022-12-07T01:21:16;2.30;99.90
9305;DHT22;4690;52.422;13.486;2022-12-07T01:23:46;2.30;99.90
9305;DHT22;4690;52.422;13.486;2022-12-07T01:26:14;2.30;99.90
9305;DHT22;4690;52.422;13.486;2022-12-07T01:28:42;2.30;99.90
9305;DHT22;4690;52.422;13.486;2022-12-07T01:31:11;2.20;99.90
9305;DHT22;4690;52.422;13.486;2022-12-07T01:33:41;2.30;99.90
9305;DHT22;4690;52.422;13.486;2022-12-07T01:36:17;2.30;99.90
9305;DHT22;4690;52.422;13.486;2022-12-07T01:38:53;2.30;99.90
9305;DHT22;4690;52.422;13.486;2022-12-07T01:41:22;2.30;99.90
9305;DHT22;4690;52.422;13.486;2022-12-07T01:46:34;2.20;99.90
9305;DHT22;4690;52.422;13.486;2022-12-07T01:49:01;2.20;99.90
9305;DHT22;4690;52.422;13.486;2022-12-07T01:51:29;2.20;99.90
9305;DHT22;4690;52.422;13.486;2022-12-07T01:53:55;2.20;99.90
9305;DHT22;4690;52.422;13.486;2022-12-07T01:56:25;2.10;99.90
9305;DHT22;4690;52.422;13.486;2022-12-07T01:58:54;2.20;99.90
9305;DHT22;4690;52.422;13.486;2022-12-07T02:01:22;2.10;99.90
9305;DHT22;4690;52.422;13.486;2022-12-07T02:03:48;2.10;99.90
9305;DHT22;4690;52.422;13.486;2022-12-07T02:06:19;2.10;99.90
9305;DHT22;4690;52.422;13.486;2022-12-07T02:08:48;2.10;99.90
9305;DHT22;4690;52.422;13.486;2022-12-07T02:11:14;2.10;99.90
9305;DHT22;4690;52.422;13.486;2022-12-07T02:13:42;2.10;99.90
9305;DHT22;4690;52.422;13.486;2022-12-07T02:16:43;2.10;99.90
9305;DHT22;4690;52.422;13.486;2022-12-07T02:22:30;2.00;99.90
9305;DHT22;4690;52.422;13.486;2022-12-07T02:28:22;2.00;99.90
9305;DHT22;4690;52.422;13.486;2022-12-07T02:30:55;1.90;99.90
9305;DHT22;4690;52.422;13.486;2022-12-07T02:33:47;1.90;99.90
9305;DHT22;4690;52.422;13.486;2022-12-07T02:36:30;1.90;99.90
9305;DHT22;4690;52.422;13.486;2022-12-07T02:39:09;1.90;99.90
9305;DHT22;4690;52.422;13.486;2022-12-07T02:41:54;1.80;99.90
9305;DHT22;4690;52.422;13.486;2022-12-07T02:44:25;1.80;99.90
9305;DHT22;4690;52.422;13.486;2022-12-07T02:46:56;1.80;99.90
9305;DHT22;4690;52.422;13.486;2022-12-07T02:49:27;1.80;99.90
9305;DHT22;4690;52.422;13.486;2022-12-07T02:51:54;1.80;99.90
9305;DHT22;4690;52.422;13.486;2022-12-07T02:54:20;1.80;99.90
9305;DHT22;4690;52.422;13.486;2022-12-07T03:00:09;1.70;99.90
9305;DHT22;4690;52.422;13.486;2022-12-07T03:03:00;1.70;99.90
9305;DHT22;4690;52.422;13.486;2022-12-07T03:13:33;1.60;99.90
9305;DHT22;4690;52.422;13.486;2022-12-07T03:16:25;1.60;99.90
9305;DHT22;4690;52.422;13.486;2022-12-07T03:19:03;1.50;99.90
9305;DHT22;4690;52.422;13.486;2022-12-07T03:21:38;1.50;99.90
9305;DHT22;4690;52.422;13.486;2022-12-07T03:24:15;1.50;99.90
9305;DHT22;4690;52.422;13.486;2022-12-07T03:26:49;1.60;99.90
9305;DHT22;4690;52.422;13.486;2022-12-07T03:29:24;1.60;99.90
9305;DHT22;4690;52.422;13.486;2022-12-07T03:32:06;1.60;99.90
9305;DHT22;4690;52.422;13.486;2022-12-07T03:37:52;1.60;99.90
9305;DHT22;4690;52.422;13.486;2022-12-07T03:40:44;1.60;99.90
9305;DHT22;4690;52.422;13.486;2022-12-07T03:43:17;1.60;99.90
9305;DHT22;4690;52.422;13.486;2022-12-07T03:52:02;1.60;99.90
9305;DHT22;4690;52.422;13.486;2022-12-07T03:57:28;1.60;99.90
9305;DHT22;4690;52.422;13.486;2022-12-07T03:59:57;1.60;99.90
9305;DHT22;4690;52.422;13.486;2022-12-07T04:02:25;1.60;99.90
9305;DHT22;4690;52.422;13.486;2022-12-07T04:04:53;1.70;99.90
9305;DHT22;4690;52.422;13.486;2022-12-07T04:07:20;1.70;99.90
9305;DHT22;4690;52.422;13.486;2022-12-07T04:09:45;1.70;99.90
9305;DHT22;4690;52.422;13.486;2022-12-07T04:12:11;1.70;99.90
9305;DHT22;4690;52.422;13.486;2022-12-07T04:14:37;1.70;99.90
9305;DHT22;4690;52.422;13.486;2022-12-07T04:17:03;1.70;99.90
9305;DHT22;4690;52.422;13.486;2022-12-07T04:19:32;1.80;99.90
9305;DHT22;4690;52.422;13.486;2022-12-07T04:22:00;1.80;99.90
9305;DHT22;4690;52.422;13.486;2022-12-07T04:24:27;1.80;99.90
9305;DHT22;4690;52.422;13.486;2022-12-07T04:26:54;1.80;99.90
9305;DHT22;4690;52.422;13.486;2022-12-07T04:29:21;1.80;99.90
9305;DHT22;4690;52.422;13.486;2022-12-07T04:31:48;1.70;99.90
9305;DHT22;4690;52.422;13.486;2022-12-07T04:34:15;1.60;99.90
9305;DHT22;4690;52.422;13.486;2022-12-07T04:36:43;1.60;99.90
9305;DHT22;4690;52.422;13.486;2022-12-07T04:39:27;1.50;99.90
9305;DHT22;4690;52.422;13.486;2022-12-07T04:41:55;1.50;99.90
9305;DHT22;4690;52.422;13.486;2022-12-07T04:44:22;1.50;99.90
9305;DHT22;4690;52.422;13.486;2022-12-07T04:46:50;1.60;99.90
9305;DHT22;4690;52.422;13.486;2022-12-07T04:49:17;1.60;99.90
9305;DHT22;4690;52.422;13.486;2022-12-07T04:51:43;1.60;99.90
9305;DHT22;4690;52.422;13.486;2022-12-07T04:54:10;1.60;99.90
9305;DHT22;4690;52.422;13.486;2022-12-07T04:56:36;1.70;99.90
9305;DHT22;4690;52.422;13.486;2022-12-07T04:59:03;1.70;99.90
9305;DHT22;4690;52.422;13.486;2022-12-07T05:01:29;1.70;99.90
9305;DHT22;4690;52.422;13.486;2022-12-07T05:03:55;1.80;99.90
9305;DHT22;4690;52.422;13.486;2022-12-07T05:06:21;1.80;99.90
9305;DHT22;4690;52.422;13.486;2022-12-07T05:08:47;1.80;99.90
9305;DHT22;4690;52.422;13.486;2022-12-07T05:11:13;1.80;99.90
9305;DHT22;4690;52.422;13.486;2022-12-07T05:14:01;1.90;99.90
9305;DHT22;4690;52.422;13.486;2022-12-07T05:16:28;1.90;99.90
9305;DHT22;4690;52.422;13.486;2022-12-07T05:18:54;2.00;99.90
9305;DHT22;4690;52.422;13.486;2022-12-07T05:21:20;2.00;99.90
9305;DHT22;4690;52.422;13.486;2022-12-07T05:23:46;2.10;99.90
9305;DHT22;4690;52.422;13.486;2022-12-07T05:26:12;2.20;99.90
9305;DHT22;4690;52.422;13.486;2022-12-07T05:28:37;2.20;99.90
9305;DHT22;4690;52.422;13.486;2022-12-07T05:31:03;2.20;99.90
9305;DHT22;4690;52.422;13.486;2022-12-07T05:33:29;2.30;99.90
9305;DHT22;4690;52.422;13.486;2022-12-07T05:35:55;2.30;99.90
9305;DHT22;4690;52.422;13.486;2022-12-07T05:38:21;2.40;99.90
9305;DHT22;4690;52.422;13.486;2022-12-07T05:40:46;2.40;99.90
9305;DHT22;4690;52.422;13.486;2022-12-07T05:43:12;2.40;99.90
9305;DHT22;4690;52.422;13.486;2022-12-07T05:45:38;2.40;99.90
9305;DHT22;4690;52.422;13.486;2022-12-07T05:48:03;2.40;99.90
9305;DHT22;4690;52.422;13.486;2022-12-07T05:50:29;2.40;99.90
9305;DHT22;4690;52.422;13.486;2022-12-07T05:52:55;2.40;99.90
9305;DHT22;4690;52.422;13.486;2022-12-07T05:55:21;2.40;99.90
9305;DHT22;4690;52.422;13.486;2022-12-07T05:57:47;2.50;99.90
9305;DHT22;4690;52.422;13.486;2022-12-07T06:00:31;2.50;99.90
9305;DHT22;4690;52.422;13.486;2022-12-07T06:02:57;2.50;99.90
9305;DHT22;4690;52.422;13.486;2022-12-07T06:05:23;2.50;99.90
9305;DHT22;4690;52.422;13.486;2022-12-07T06:07:49;2.60;99.90
9305;DHT22;4690;52.422;13.486;2022-12-07T06:10:15;2.60;99.90
9305;DHT22;4690;52.422;13.486;2022-12-07T06:12:41;2.60;99.90
9305;DHT22;4690;52.422;13.486;2022-12-07T06:15:09;2.60;99.90
9305;DHT22;4690;52.422;13.486;2022-12-07T06:17:36;2.70;99.90
9305;DHT22;4690;52.422;13.486;2022-12-07T06:20:03;2.70;99.90
9305;DHT22;4690;52.422;13.486;2022-12-07T06:22:29;2.70;99.90
9305;DHT22;4690;52.422;13.486;2022-12-07T06:24:55;2.70;99.90
9305;DHT22;4690;52.422;13.486;2022-12-07T06:27:20;2.70;99.90
9305;DHT22;4690;52.422;13.486;2022-12-07T06:29:46;2.70;99.90
9305;DHT22;4690;52.422;13.486;2022-12-07T06:32:12;2.80;99.90
9305;DHT22;4690;52.422;13.486;2022-12-07T06:34:38;2.80;99.90
9305;DHT22;4690;52.422;13.486;2022-12-07T06:37:04;2.80;99.90
9305;DHT22;4690;52.422;13.486;2022-12-07T06:39:30;2.80;99.90
9305;DHT22;4690;52.422;13.486;2022-12-07T06:41:56;2.80;99.90
9305;DHT22;4690;52.422;13.486;2022-12-07T06:44:23;2.80;99.90
9305;DHT22;4690;52.422;13.486;2022-12-07T06:46:49;2.80;99.90
9305;DHT22;4690;52.422;13.486;2022-12-07T06:49:15;2.90;99.90
9305;DHT22;4690;52.422;13.486;2022-12-07T06:51:42;2.90;99.90
9305;DHT22;4690;52.422;13.486;2022-12-07T06:54:09;3.00;99.90
9305;DHT22;4690;52.422;13.486;2022-12-07T06:56:37;3.00;99.90
9305;DHT22;4690;52.422;13.486;2022-12-07T06:59:03;3.00;99.90
9305;DHT22;4690;52.422;13.486;2022-12-07T07:01:32;3.00;99.90
9305;DHT22;4690;52.422;13.486;2022-12-07T07:03:58;3.00;99.90
9305;DHT22;4690;52.422;13.486;2022-12-07T07:06:25;3.00;99.90
9305;DHT22;4690;52.422;13.486;2022-12-07T07:08:51;3.10;99.90
9305;DHT22;4690;52.422;13.486;2022-12-07T07:11:17;3.10;99.90
9305;DHT22;4690;52.422;13.486;2022-12-07T07:13:44;3.20;99.90
9305;DHT22;4690;52.422;13.486;2022-12-07T07:16:10;3.20;99.90
9305;DHT22;4690;52.422;13.486;2022-12-07T07:18:36;3.30;99.90
9305;DHT22;4690;52.422;13.486;2022-12-07T07:21:03;3.20;99.90
9305;DHT22;4690;52.422;13.486;2022-12-07T07:23:29;3.20;99.90
9305;DHT22;4690;52.422;13.486;2022-12-07T07:25:55;3.30;99.90
9305;DHT22;4690;52.422;13.486;2022-12-07T07:28:20;3.30;99.90
9305;DHT22;4690;52.422;13.486;2022-12-07T07:30:47;3.30;99.90
9305;DHT22;4690;52.422;13.486;2022-12-07T07:33:12;3.30;99.90
9305;DHT22;4690;52.422;13.486;2022-12-07T07:35:38;3.40;99.90
9305;DHT22;4690;52.422;13.486;2022-12-07T07:38:05;3.40;99.90
9305;DHT22;4690;52.422;13.486;2022-12-07T07:40:33;3.50;99.90
9305;DHT22;4690;52.422;13.486;2022-12-07T07:42:58;3.50;99.90
9305;DHT22;4690;52.422;13.486;2022-12-07T07:45:25;3.50;99.90
9305;DHT22;4690;52.422;13.486;2022-12-07T07:47:52;3.50;99.90
9305;DHT22;4690;52.422;13.486;2022-12-07T07:50:18;3.60;99.90
9305;DHT22;4690;52.422;13.486;2022-12-07T07:52:44;3.60;99.90
9305;DHT22;4690;52.422;13.486;2022-12-07T07:55:11;3.60;99.90
9305;DHT22;4690;52.422;13.486;2022-12-07T07:57:38;3.60;99.90
9305;DHT22;4690;52.422;13.486;2022-12-07T08:00:09;3.60;99.90
9305;DHT22;4690;52.422;13.486;2022-12-07T08:02:37;3.70;99.90
9305;DHT22;4690;52.422;13.486;2022-12-07T08:05:03;3.70;99.90
9305;DHT22;4690;52.422;13.486;2022-12-07T08:07:29;3.70;99.90
9305;DHT22;4690;52.422;13.486;2022-12-07T08:09:55;3.70;99.90
9305;DHT22;4690;52.422;13.486;2022-12-07T08:12:20;3.70;99.90
9305;DHT22;4690;52.422;13.486;2022-12-07T08:14:46;3.80;99.90
9305;DHT22;4690;52.422;13.486;2022-12-07T08:17:12;3.80;99.90
9305;DHT22;4690;52.422;13.486;2022-12-07T08:19:38;3.80;99.90
9305;DHT22;4690;52.422;13.486;2022-12-07T08:22:04;3.90;99.90
9305;DHT22;4690;52.422;13.486;2022-12-07T08:24:32;3.90;99.90
9305;DHT22;4690;52.422;13.486;2022-12-07T08:26:58;3.90;99.90
9305;DHT22;4690;52.422;13.486;2022-12-07T08:29:24;3.90;99.90
9305;DHT22;4690;52.422;13.486;2022-12-07T08:31:50;3.90;99.90
9305;DHT22;4690;52.422;13.486;2022-12-07T08:34:15;3.90;99.90
9305;DHT22;4690;52.422;13.486;2022-12-07T08:36:41;4.00;99.90
9305;DHT22;4690;52.422;13.486;2022-12-07T08:39:07;3.90;99.90
9305;DHT22;4690;52.422;13.486;2022-12-07T08:41:33;3.90;99.90
9305;DHT22;4690;52.422;13.486;2022-12-07T08:43:59;3.90;99.90
9305;DHT22;4690;52.422;13.486;2022-12-07T08:46:45;3.90;99.90
9305;DHT22;4690;52.422;13.486;2022-12-07T08:49:19;3.80;99.90
9305;DHT22;4690;52.422;13.486;2022-12-07T08:51:48;3.80;99.90
9305;DHT22;4690;52.422;13.486;2022-12-07T08:54:17;3.70;99.90
9305;DHT22;4690;52.422;13.486;2022-12-07T08:56:45;3.70;99.90
9305;DHT22;4690;52.422;13.486;2022-12-07T08:59:14;3.70;99.90
9305;DHT22;4690;52.422;13.486;2022-12-07T09:01:43;3.70;99.90
9305;DHT22;4690;52.422;13.486;2022-12-07T09:04:08;3.70;99.90
9305;DHT22;4690;52.422;13.486;2022-12-07T09:06:35;3.60;99.90
9305;DHT22;4690;52.422;13.486;2022-12-07T09:09:01;3.70;99.90
9305;DHT22;4690;52.422;13.486;2022-12-07T09:11:28;3.70;99.90
9305;DHT22;4690;52.422;13.486;2022-12-07T09:13:54;3.70;99.90
9305;DHT22;4690;52.422;13.486;2022-12-07T09:16:20;3.70;99.90
9305;DHT22;4690;52.422;13.486;2022-12-07T09:18:46;3.70;99.90
9305;DHT22;4690;52.422;13.486;2022-12-07T09:21:12;3.70;99.90
9305;DHT22;4690;52.422;13.486;2022-12-07T09:23:38;3.70;99.90
9305;DHT22;4690;52.422;13.486;2022-12-07T09:26:04;3.60;99.90
9305;DHT22;4690;52.422;13.486;2022-12-07T09:28:30;3.70;99.90
9305;DHT22;4690;52.422;13.486;2022-12-07T09:30:56;3.60;99.90
9305;DHT22;4690;52.422;13.486;2022-12-07T09:33:22;3.70;99.90
9305;DHT22;4690;52.422;13.486;2022-12-07T09:35:50;3.70;99.90
9305;DHT22;4690;52.422;13.486;2022-12-07T09:38:17;3.60;99.90
9305;DHT22;4690;52.422;13.486;2022-12-07T09:40:44;3.70;99.90
9305;DHT22;4690;52.422;13.486;2022-12-07T09:43:22;3.70;99.90
9305;DHT22;4690;52.422;13.486;2022-12-07T09:45:52;3.70;99.90
9305;DHT22;4690;52.422;13.486;2022-12-07T09:48:22;3.70;99.90
9305;DHT22;4690;52.422;13.486;2022-12-07T09:50:57;3.70;99.90
9305;DHT22;4690;52.422;13.486;2022-12-07T09:53:28;3.60;99.90
9305;DHT22;4690;52.422;13.486;2022-12-07T09:55:59;3.60;99.90
9305;DHT22;4690;52.422;13.486;2022-12-07T09:58:28;3.50;99.90
9305;DHT22;4690;52.422;13.486;2022-12-07T10:03:36;3.40;99.90
9305;DHT22;4690;52.422;13.486;2022-12-07T10:06:05;3.40;99.90
9305;DHT22;4690;52.422;13.486;2022-12-07T10:08:32;3.40;99.90
9305;DHT22;4690;52.422;13.486;2022-12-07T10:11:01;3.40;99.90
9305;DHT22;4690;52.422;13.486;2022-12-07T10:13:40;3.40;99.90
9305;DHT22;4690;52.422;13.486;2022-12-07T10:18:50;3.40;99.90
9305;DHT22;4690;52.422;13.486;2022-12-07T10:21:22;3.50;99.90
9305;DHT22;4690;52.422;13.486;2022-12-07T10:24:13;3.50;99.90
9305;DHT22;4690;52.422;13.486;2022-12-07T10:27:01;3.50;99.90
9305;DHT22;4690;52.422;13.486;2022-12-07T10:29:39;3.60;99.90
9305;DHT22;4690;52.422;13.486;2022-12-07T10:34:41;3.50;99.90
9305;DHT22;4690;52.422;13.486;2022-12-07T10:39:52;3.50;99.90
9305;DHT22;4690;52.422;13.486;2022-12-07T10:42:22;3.50;99.90
9305;DHT22;4690;52.422;13.486;2022-12-07T10:45:07;3.70;99.90
9305;DHT22;4690;52.422;13.486;2022-12-07T10:50:47;3.90;99.90
9305;DHT22;4690;52.422;13.486;2022-12-07T10:59:53;4.00;99.90
9305;DHT22;4690;52.422;13.486;2022-12-07T11:12:09;4.30;99.90
9305;DHT22;4690;52.422;13.486;2022-12-07T11:15:40;4.40;99.90
9305;DHT22;4690;52.422;13.486;2022-12-07T11:18:49;4.50;99.90
9305;DHT22;4690;52.422;13.486;2022-12-07T11:24:17;4.50;99.90
9305;DHT22;4690;52.422;13.486;2022-12-07T11:33:02;4.60;99.90
9305;DHT22;4690;52.422;13.486;2022-12-07T11:36:05;4.70;99.90
9305;DHT22;4690;52.422;13.486;2022-12-07T11:38:55;4.60;99.90
9305;DHT22;4690;52.422;13.486;2022-12-07T11:41:37;4.70;99.90
9305;DHT22;4690;52.422;13.486;2022-12-07T11:44:15;4.70;99.90
9305;DHT22;4690;52.422;13.486;2022-12-07T11:50:36;4.80;99.90
9305;DHT22;4690;52.422;13.486;2022-12-07T11:56:10;4.80;99.90
9305;DHT22;4690;52.422;13.486;2022-12-07T11:58:54;4.70;99.90
9305;DHT22;4690;52.422;13.486;2022-12-07T12:06:35;4.80;99.90
9305;DHT22;4690;52.422;13.486;2022-12-07T12:20:55;4.90;99.90
9305;DHT22;4690;52.422;13.486;2022-12-07T12:26:28;4.90;99.90
9305;DHT22;4690;52.422;13.486;2022-12-07T12:29:03;4.90;99.90
9305;DHT22;4690;52.422;13.486;2022-12-07T12:31:39;4.90;99.90
9305;DHT22;4690;52.422;13.486;2022-12-07T12:34:42;4.90;99.90
9305;DHT22;4690;52.422;13.486;2022-12-07T12:42:51;5.00;99.90
9305;DHT22;4690;52.422;13.486;2022-12-07T12:50:40;4.90;99.90
9305;DHT22;4690;52.422;13.486;2022-12-07T12:53:19;5.00;99.90
9305;DHT22;4690;52.422;13.486;2022-12-07T12:56:28;4.90;99.90
9305;DHT22;4690;52.422;13.486;2022-12-07T12:59:30;4.90;99.90
9305;DHT22;4690;52.422;13.486;2022-12-07T13:02:15;5.00;99.90
9305;DHT22;4690;52.422;13.486;2022-12-07T13:18:24;5.00;99.90
9305;DHT22;4690;52.422;13.486;2022-12-07T13:26:39;5.20;99.90
9305;DHT22;4690;52.422;13.486;2022-12-07T13:29:19;5.20;99.90
9305;DHT22;4690;52.422;13.486;2022-12-07T13:31:55;5.10;99.90
9305;DHT22;4690;52.422;13.486;2022-12-07T13:34:40;5.20;99.90
9305;DHT22;4690;52.422;13.486;2022-12-07T13:42:33;5.20;99.90
9305;DHT22;4690;52.422;13.486;2022-12-07T13:45:20;5.10;99.90
9305;DHT22;4690;52.422;13.486;2022-12-07T13:48:22;5.10;99.90
9305;DHT22;4690;52.422;13.486;2022-12-07T13:50:54;5.00;99.90
9305;DHT22;4690;52.422;13.486;2022-12-07T13:53:21;5.10;99.90
9305;DHT22;4690;52.422;13.486;2022-12-07T13:55:47;5.00;99.90
9305;DHT22;4690;52.422;13.486;2022-12-07T13:58:14;5.00;99.90
9305;DHT22;4690;52.422;13.486;2022-12-07T14:00:41;5.00;99.90
9305;DHT22;4690;52.422;13.486;2022-12-07T14:05:42;4.90;99.90
9305;DHT22;4690;52.422;13.486;2022-12-07T14:13:37;4.90;99.90
9305;DHT22;4690;52.422;13.486;2022-12-07T14:16:22;4.90;99.90
9305;DHT22;4690;52.422;13.486;2022-12-07T14:18:54;4.90;99.90
9305;DHT22;4690;52.422;13.486;2022-12-07T14:21:26;4.90;99.90
9305;DHT22;4690;52.422;13.486;2022-12-07T14:24:19;4.90;99.90
9305;DHT22;4690;52.422;13.486;2022-12-07T14:26:47;4.90;99.90
9305;DHT22;4690;52.422;13.486;2022-12-07T14:31:56;4.90;99.90
9305;DHT22;4690;52.422;13.486;2022-12-07T14:34:41;4.90;99.90
9305;DHT22;4690;52.422;13.486;2022-12-07T14:37:09;4.90;99.90
9305;DHT22;4690;52.422;13.486;2022-12-07T14:39:36;4.80;99.90
9305;DHT22;4690;52.422;13.486;2022-12-07T14:42:01;4.80;99.90
9305;DHT22;4690;52.422;13.486;2022-12-07T14:44:27;4.90;99.90
9305;DHT22;4690;52.422;13.486;2022-12-07T14:46:54;4.80;99.90
9305;DHT22;4690;52.422;13.486;2022-12-07T14:49:19;4.80;99.90
9305;DHT22;4690;52.422;13.486;2022-12-07T14:51:46;4.80;99.90
9305;DHT22;4690;52.422;13.486;2022-12-07T14:54:20;4.80;99.90
9305;DHT22;4690;52.422;13.486;2022-12-07T14:56:49;4.80;99.90
9305;DHT22;4690;52.422;13.486;2022-12-07T14:59:17;4.70;99.90
9305;DHT22;4690;52.422;13.486;2022-12-07T15:01:44;4.70;99.90
9305;DHT22;4690;52.422;13.486;2022-12-07T15:04:09;4.70;99.90
9305;DHT22;4690;52.422;13.486;2022-12-07T15:06:35;4.70;99.90
9305;DHT22;4690;52.422;13.486;2022-12-07T15:09:02;4.70;99.90
9305;DHT22;4690;52.422;13.486;2022-12-07T15:11:28;4.60;99.90
9305;DHT22;4690;52.422;13.486;2022-12-07T15:13:54;4.60;99.90
9305;DHT22;4690;52.422;13.486;2022-12-07T15:16:37;4.50;99.90
9305;DHT22;4690;52.422;13.486;2022-12-07T15:19:06;4.40;99.90
9305;DHT22;4690;52.422;13.486;2022-12-07T15:21:42;4.40;99.90
9305;DHT22;4690;52.422;13.486;2022-12-07T15:24:12;4.30;99.90
9305;DHT22;4690;52.422;13.486;2022-12-07T15:26:39;4.20;99.90
9305;DHT22;4690;52.422;13.486;2022-12-07T15:29:05;4.20;99.90
9305;DHT22;4690;52.422;13.486;2022-12-07T15:31:32;4.20;99.90
9305;DHT22;4690;52.422;13.486;2022-12-07T15:33:58;4.20;99.90
9305;DHT22;4690;52.422;13.486;2022-12-07T15:36:27;4.10;99.90
9305;DHT22;4690;52.422;13.486;2022-12-07T15:38:55;4.10;99.90
9305;DHT22;4690;52.422;13.486;2022-12-07T15:41:21;4.10;99.90
9305;DHT22;4690;52.422;13.486;2022-12-07T15:43:47;4.00;99.90
9305;DHT22;4690;52.422;13.486;2022-12-07T15:46:37;4.00;99.90
9305;DHT22;4690;52.422;13.486;2022-12-07T15:49:14;4.00;99.90
9305;DHT22;4690;52.422;13.486;2022-12-07T15:51:41;4.00;99.90
9305;DHT22;4690;52.422;13.486;2022-12-07T15:54:20;3.90;99.90
9305;DHT22;4690;52.422;13.486;2022-12-07T15:56:50;4.00;99.90
9305;DHT22;4690;52.422;13.486;2022-12-07T15:59:17;4.00;99.90
9305;DHT22;4690;52.422;13.486;2022-12-07T16:01:43;4.00;99.90
9305;DHT22;4690;52.422;13.486;2022-12-07T16:04:09;3.90;99.90
9305;DHT22;4690;52.422;13.486;2022-12-07T16:06:35;3.90;99.90
9305;DHT22;4690;52.422;13.486;2022-12-07T16:09:02;3.90;99.90
9305;DHT22;4690;52.422;13.486;2022-12-07T16:11:29;3.90;99.90
9305;DHT22;4690;52.422;13.486;2022-12-07T16:13:54;3.90;99.90
9305;DHT22;4690;52.422;13.486;2022-12-07T16:16:20;3.90;99.90
9305;DHT22;4690;52.422;13.486;2022-12-07T16:18:48;3.90;99.90
9305;DHT22;4690;52.422;13.486;2022-12-07T16:21:16;3.80;99.90
9305;DHT22;4690;52.422;13.486;2022-12-07T16:23:43;3.80;99.90
9305;DHT22;4690;52.422;13.486;2022-12-07T16:26:15;3.70;99.90
9305;DHT22;4690;52.422;13.486;2022-12-07T16:28:47;3.70;99.90
9305;DHT22;4690;52.422;13.486;2022-12-07T16:31:16;3.70;99.90
9305;DHT22;4690;52.422;13.486;2022-12-07T16:33:45;3.70;99.90
9305;DHT22;4690;52.422;13.486;2022-12-07T16:36:11;3.60;99.90
9305;DHT22;4690;52.422;13.486;2022-12-07T16:38:41;3.70;99.90
9305;DHT22;4690;52.422;13.486;2022-12-07T16:41:08;3.70;99.90
9305;DHT22;4690;52.422;13.486;2022-12-07T16:43:35;3.70;99.90
9305;DHT22;4690;52.422;13.486;2022-12-07T16:46:03;3.70;99.90
9305;DHT22;4690;52.422;13.486;2022-12-07T16:48:29;3.70;99.90
9305;DHT22;4690;52.422;13.486;2022-12-07T16:50:55;3.70;99.90
9305;DHT22;4690;52.422;13.486;2022-12-07T16:53:23;3.70;99.90
9305;DHT22;4690;52.422;13.486;2022-12-07T16:55:50;3.70;99.90
9305;DHT22;4690;52.422;13.486;2022-12-07T16:58:17;3.70;99.90
9305;DHT22;4690;52.422;13.486;2022-12-07T17:00:44;3.60;99.90
9305;DHT22;4690;52.422;13.486;2022-12-07T17:03:11;3.50;99.90
9305;DHT22;4690;52.422;13.486;2022-12-07T17:05:41;3.50;99.90
9305;DHT22;4690;52.422;13.486;2022-12-07T17:08:09;3.50;99.90
9305;DHT22;4690;52.422;13.486;2022-12-07T17:10:38;3.40;99.90
9305;DHT22;4690;52.422;13.486;2022-12-07T17:13:06;3.40;99.90
9305;DHT22;4690;52.422;13.486;2022-12-07T17:16:02;3.50;99.90
9305;DHT22;4690;52.422;13.486;2022-12-07T17:18:32;3.50;99.90
9305;DHT22;4690;52.422;13.486;2022-12-07T17:21:05;3.40;99.90
9305;DHT22;4690;52.422;13.486;2022-12-07T17:23:33;3.40;99.90
9305;DHT22;4690;52.422;13.486;2022-12-07T17:26:08;3.50;99.90
9305;DHT22;4690;52.422;13.486;2022-12-07T17:28:36;3.40;99.90
9305;DHT22;4690;52.422;13.486;2022-12-07T17:31:08;3.40;99.90
9305;DHT22;4690;52.422;13.486;2022-12-07T17:33:36;3.30;99.90
9305;DHT22;4690;52.422;13.486;2022-12-07T17:36:13;3.30;99.90
9305;DHT22;4690;52.422;13.486;2022-12-07T17:38:39;3.30;99.90
9305;DHT22;4690;52.422;13.486;2022-12-07T17:41:16;3.30;99.90
9305;DHT22;4690;52.422;13.486;2022-12-07T17:44:03;3.40;99.90
9305;DHT22;4690;52.422;13.486;2022-12-07T17:46:31;3.30;99.90
9305;DHT22;4690;52.422;13.486;2022-12-07T17:48:58;3.30;99.90
9305;DHT22;4690;52.422;13.486;2022-12-07T17:51:25;3.20;99.90
9305;DHT22;4690;52.422;13.486;2022-12-07T17:54:10;3.20;99.90
9305;DHT22;4690;52.422;13.486;2022-12-07T17:56:37;3.10;99.90
9305;DHT22;4690;52.422;13.486;2022-12-07T17:59:04;3.10;99.90
9305;DHT22;4690;52.422;13.486;2022-12-07T18:01:31;3.10;99.90
9305;DHT22;4690;52.422;13.486;2022-12-07T18:03:57;3.10;99.90
9305;DHT22;4690;52.422;13.486;2022-12-07T18:06:23;3.10;99.90
9305;DHT22;4690;52.422;13.486;2022-12-07T18:08:49;3.10;99.90
9305;DHT22;4690;52.422;13.486;2022-12-07T18:11:16;3.10;99.90
9305;DHT22;4690;52.422;13.486;2022-12-07T18:13:41;3.00;99.90
9305;DHT22;4690;52.422;13.486;2022-12-07T18:16:13;3.00;99.90
9305;DHT22;4690;52.422;13.486;2022-12-07T18:18:42;3.00;99.90
9305;DHT22;4690;52.422;13.486;2022-12-07T18:21:17;2.90;99.90
9305;DHT22;4690;52.422;13.486;2022-12-07T18:23:47;2.90;99.90
9305;DHT22;4690;52.422;13.486;2022-12-07T18:26:15;2.90;99.90
9305;DHT22;4690;52.422;13.486;2022-12-07T18:28:42;2.80;99.90
9305;DHT22;4690;52.422;13.486;2022-12-07T18:31:08;2.70;99.90
9305;DHT22;4690;52.422;13.486;2022-12-07T18:33:35;2.70;99.90
9305;DHT22;4690;52.422;13.486;2022-12-07T18:36:02;2.70;99.90
9305;DHT22;4690;52.422;13.486;2022-12-07T18:38:29;2.60;99.90
9305;DHT22;4690;52.422;13.486;2022-12-07T18:40:55;2.60;99.90
9305;DHT22;4690;52.422;13.486;2022-12-07T18:43:21;2.60;99.90
9305;DHT22;4690;52.422;13.486;2022-12-07T18:45:50;2.60;99.90
9305;DHT22;4690;52.422;13.486;2022-12-07T18:48:17;2.50;99.90
9305;DHT22;4690;52.422;13.486;2022-12-07T18:50:57;2.50;99.90
9305;DHT22;4690;52.422;13.486;2022-12-07T18:53:25;2.40;99.90
9305;DHT22;4690;52.422;13.486;2022-12-07T18:55:50;2.40;99.90